Time;durP1;ratioP1;P1;durP2;ratioP2;P2;SDS_P1;SDS_P2;PMS_P1;PMS_P2;Temp;Humidity;BMP_temperature;BMP_pressure;BME280_temperature;BME280_humidity;BME280_pressure;Samples;Min_cycle;Max_cycle;Signal;HPM_P1;HPM_P2
2022/08/10 00:02:24;;;;;;;;;;;;;;;-142.75;100.00;77440.44;5012762;28;19956;-66
2022/08/10 00:04:49;;;;;;;;;;;;;;;-142.75;100.00;77454.25;5011467;28;20430;-66
2022/08/10 00:07:15;;;;;;;;;;;;;;;-142.75;100.00;77460.13;5012353;28;19920;-66
2022/08/10 00:09:40;;;;;;;;;;;;;;;-142.75;100.00;77460.13;5012575;28;20330;-65
2022/08/10 00:12:05;;;;;;;;;;;;;;;-142.75;100.00;77479.84;5012605;28;19913;-66
2022/08/10 00:14:30;;;;;;;;;;;;;;;-142.75;100.00;77487.72;5012414;28;19959;-66
2022/08/10 00:16:55;;;;;;;;;;;;;;;-142.75;100.00;77489.69;5012222;28;20461;-66
2022/08/10 00:19:21;;;;;;;;;;;;;;;-142.75;100.00;77499.53;5012462;28;19917;-66
2022/08/10 00:21:46;;;;;;;;;;;;;;;-142.75;100.00;77511.34;5012516;28;19920;-66
2022/08/10 00:24:11;;;;;;;;;;;;;;;-142.75;100.00;77513.31;5011142;28;19913;-66
2022/08/10 00:26:36;;;;;;;;;;;;;;;-142.75;100.00;77517.25;5012205;28;19913;-65
2022/08/10 00:29:02;;;;;;;;;;;;;;;-142.75;100.00;77523.16;5012383;28;19914;-66
2022/08/10 00:31:27;;;;;;;;;;;;;;;-142.75;100.00;77523.16;5012344;28;19914;-66
2022/08/10 00:33:52;;;;;;;;;;;;;;;-142.75;100.00;77531.03;5012323;28;20135;-66
2022/08/10 00:36:18;;;;;;;;;;;;;;;-142.75;100.00;77540.88;5012400;28;19986;-66
2022/08/10 00:38:43;;;;;;;;;;;;;;;-142.75;100.00;77548.75;5010573;28;19925;-66
2022/08/10 00:41:08;;;;;;;;;;;;;;;-142.75;100.00;77556.63;5012380;28;19981;-65
2022/08/10 00:43:33;;;;;;;;;;;;;;;-142.75;100.00;77560.56;5012314;28;20354;-66
2022/08/10 00:45:59;;;;;;;;;;;;;;;-142.75;100.00;77564.50;5012280;28;19921;-65
2022/08/10 00:48:24;;;;;;;;;;;;;;;-142.75;100.00;77560.56;5011969;28;19914;-66
2022/08/10 00:50:49;;;;;;;;;;;;;;;-142.75;100.00;77570.41;5012318;28;19913;-66
2022/08/10 00:53:14;;;;;;;;;;;;;;;-142.75;100.00;77570.41;5012283;28;20012;-66
2022/08/10 00:55:40;;;;;;;;;;;;;;;-142.75;100.00;77574.34;5012811;28;19940;-67
2022/08/10 00:58:06;;;;;;;;;;;;;;;-142.75;100.00;77588.13;5014546;28;19913;-65
2022/08/10 01:00:32;;;;;;;;;;;;;;;-142.75;100.00;77582.22;5014621;28;20382;-65
2022/08/10 01:02:57;;;;;;;;;;;;;;;-142.75;100.00;77594.03;5014750;28;19957;-66
2022/08/10 01:05:22;;;;;;;;;;;;;;;-142.75;100.00;77601.91;5015904;28;20353;-66
2022/08/10 01:07:52;;;;;;;;;;;;;;;-142.75;100.00;77601.91;5015661;28;19936;-65
2022/08/10 01:10:23;;;;;;;;;;;;;;;-142.75;100.00;77609.78;5015815;28;19993;-66
2022/08/10 01:12:50;;;;;;;;;;;;;;;-142.75;100.00;77613.72;5015833;28;19999;-66
2022/08/10 01:15:28;;;;;;;;;;;;;;;-142.75;100.00;77605.84;5014410;28;19971;-65
2022/08/10 01:17:59;;;;;;;;;;;;;;;-142.75;100.00;77605.84;5015517;28;20307;-66
2022/08/10 01:20:24;;;;;;;;;;;;;;;-142.75;100.00;77605.84;5015826;28;19940;-66
2022/08/10 01:23:08;;;;;;;;;;;;;;;-142.75;100.00;77609.78;5015622;28;19913;-66
2022/08/10 01:25:48;;;;;;;;;;;;;;;-142.75;100.00;77609.78;5014312;28;19917;-66
2022/08/10 01:28:13;;;;;;;;;;;;;;;-142.75;100.00;77609.78;5014025;28;20121;-66
2022/08/10 01:30:40;;;;;;;;;;;;;;;-142.75;100.00;77603.88;5015460;28;20438;-66
2022/08/10 01:33:11;;;;;;;;;;;;;;;-142.75;100.00;77619.63;5015473;28;19913;-66
2022/08/10 01:35:45;;;;;;;;;;;;;;;-142.75;100.00;77619.63;5014097;28;20016;-65
2022/08/10 01:38:15;;;;;;;;;;;;;;;-142.75;100.00;77625.53;5014927;28;20358;-67
2022/08/10 01:40:43;;;;;;;;;;;;;;;-142.75;100.00;77629.47;5013962;28;19940;-66
2022/08/10 01:43:09;;;;;;;;;;;;;;;-142.75;100.00;77631.44;5015268;28;19920;-66
2022/08/10 01:45:40;;;;;;;;;;;;;;;-142.75;100.00;77645.22;5015252;28;19917;-66
2022/08/10 01:48:29;;;;;;;;;;;;;;;-142.75;100.00;77631.44;5014847;28;19914;-66
2022/08/10 01:51:15;;;;;;;;;;;;;;;-142.75;100.00;77639.31;5013991;28;19960;-65
2022/08/10 01:53:50;;;;;;;;;;;;;;;-142.75;100.00;77653.09;5007635;28;20419;-66
2022/08/10 01:56:16;;;;;;;;;;;;;;;-142.75;100.00;77649.16;5015021;28;19917;-66
2022/08/10 01:58:42;;;;;;;;;;;;;;;-142.75;100.00;77651.13;5014653;28;19921;-67
2022/08/10 02:01:09;;;;;;;;;;;;;;;-142.75;100.00;77651.13;5014855;28;19913;-66
2022/08/10 02:03:36;;;;;;;;;;;;;;;-142.75;100.00;77647.19;5014893;28;19917;-66
2022/08/10 02:06:01;;;;;;;;;;;;;;;-142.75;100.00;77653.09;5014864;28;19913;-66
2022/08/10 02:08:27;;;;;;;;;;;;;;;-142.75;100.00;77647.19;5013720;28;19920;-66
2022/08/10 02:10:53;;;;;;;;;;;;;;;-142.75;100.00;77645.22;5014846;28;19921;-66
2022/08/10 02:13:19;;;;;;;;;;;;;;;-142.75;100.00;77641.28;5014645;28;19964;-66
2022/08/10 02:15:45;;;;;;;;;;;;;;;-142.75;100.00;77649.16;5014608;28;19917;-66
2022/08/10 02:18:11;;;;;;;;;;;;;;;-142.75;100.00;77647.19;5013042;28;20287;-66
2022/08/10 02:20:39;;;;;;;;;;;;;;;-142.75;100.00;77659.00;5014492;28;19917;-66
2022/08/10 02:23:07;;;;;;;;;;;;;;;-142.75;100.00;77651.13;5014440;28;19948;-66
2022/08/10 02:25:33;;;;;;;;;;;;;;;-142.75;100.00;77653.09;5014487;28;19921;-65
2022/08/10 02:27:59;;;;;;;;;;;;;;;-142.75;100.00;77645.22;5014070;28;19913;-66
2022/08/10 02:30:24;;;;;;;;;;;;;;;-142.75;100.00;77651.13;5014305;28;19913;-66
2022/08/10 02:32:50;;;;;;;;;;;;;;;-142.75;100.00;77651.13;5014508;28;19967;-66
2022/08/10 02:35:16;;;;;;;;;;;;;;;-142.75;100.00;77653.09;5014209;28;19917;-66
2022/08/10 02:37:43;;;;;;;;;;;;;;;-142.75;100.00;77664.91;5013938;28;20371;-66
2022/08/10 02:40:09;;;;;;;;;;;;;;;-142.75;100.00;77674.75;5012879;28;19924;-66
2022/08/10 02:42:43;;;;;;;;;;;;;;;-142.75;100.00;77678.69;5014126;28;20343;-65
2022/08/10 02:45:08;;;;;;;;;;;;;;;-142.75;100.00;77682.63;5014181;28;20441;-66
2022/08/10 02:47:41;;;;;;;;;;;;;;;-142.75;100.00;77700.34;5013832;28;20052;-67
2022/08/10 02:50:07;;;;;;;;;;;;;;;-142.75;100.00;77694.44;5012727;28;19913;-66
2022/08/10 02:52:44;;;;;;;;;;;;;;;-142.75;100.00;77692.47;5012597;28;20334;-66
2022/08/10 02:55:20;;;;;;;;;;;;;;;-142.75;100.00;77688.53;5012463;28;19917;-66
2022/08/10 02:57:49;;;;;;;;;;;;;;;-142.75;100.00;77676.72;5013652;28;20366;-65
2022/08/10 03:00:15;;;;;;;;;;;;;;;-142.75;100.00;77678.69;5013771;28;19914;-66
2022/08/10 03:02:42;;;;;;;;;;;;;;;-142.75;100.00;77684.59;5013750;28;19921;-66
2022/08/10 03:05:11;;;;;;;;;;;;;;;-142.75;100.00;77692.47;5013739;28;20008;-66
2022/08/10 03:07:40;;;;;;;;;;;;;;;-142.75;100.00;77692.47;5013274;28;19914;-65
2022/08/10 03:10:07;;;;;;;;;;;;;;;-142.75;100.00;77696.41;5013661;28;19953;-66
2022/08/10 03:12:34;;;;;;;;;;;;;;;-142.75;100.00;77710.19;5013664;28;19949;-66
2022/08/10 03:14:59;;;;;;;;;;;;;;;-142.75;100.00;77718.06;5013513;28;19975;-65
2022/08/10 03:17:25;;;;;;;;;;;;;;;-142.75;100.00;77725.97;5011938;28;20012;-66
2022/08/10 03:19:51;;;;;;;;;;;;;;;-142.75;100.00;77729.88;5012436;28;19913;-66
2022/08/10 03:22:17;;;;;;;;;;;;;;;-142.75;100.00;77727.94;5013347;28;20060;-67
2022/08/10 03:24:44;;;;;;;;;;;;;;;-142.75;100.00;77725.97;5013381;28;19937;-66
2022/08/10 03:27:10;;;;;;;;;;;;;;;-142.75;100.00;77722.00;5013011;28;19913;-66
2022/08/10 03:29:36;;;;;;;;;;;;;;;-142.75;100.00;77725.97;5013230;28;19914;-66
2022/08/10 03:32:02;;;;;;;;;;;;;;;-142.75;100.00;77727.94;5013228;28;19959;-65
2022/08/10 03:34:29;;;;;;;;;;;;;;;-142.75;100.00;77716.09;5013166;28;19918;-65
2022/08/10 03:36:54;;;;;;;;;;;;;;;-142.75;100.00;77710.19;5011570;28;20346;-65
2022/08/10 03:39:19;;;;;;;;;;;;;;;-142.75;100.00;77710.19;5029340;22;19901;-63
2022/08/10 03:41:47;;;;;;;;;;;;;;;-142.75;100.00;77708.22;5031395;28;19979;-62
2022/08/10 03:44:14;;;;;;;;;;;;;;;-142.75;100.00;77702.31;5031904;28;20386;-62
2022/08/10 03:46:40;;;;;;;;;;;;;;;-142.75;100.00;77710.19;5032423;28;19913;-62
2022/08/10 03:49:06;;;;;;;;;;;;;;;-142.75;100.00;77716.09;5032614;28;19913;-63
2022/08/10 03:51:33;;;;;;;;;;;;;;;-142.75;100.00;77720.03;5032548;28;20047;-62
2022/08/10 03:53:59;;;;;;;;;;;;;;;-142.75;100.00;77729.88;5032503;28;19917;-62
2022/08/10 03:56:24;;;;;;;;;;;;;;;-142.75;100.00;77735.81;5032600;28;20402;-62
2022/08/10 03:58:50;;;;;;;;;;;;;;;-142.75;100.00;77739.75;5032441;28;19920;-62
2022/08/10 04:01:15;;;;;;;;;;;;;;;-142.75;100.00;77751.56;5032536;28;19913;-62
2022/08/10 04:03:40;;;;;;;;;;;;;;;-142.75;100.00;77747.63;5014953;28;19920;-62
2022/08/10 04:06:06;;;;;;;;;;;;;;;-142.75;100.00;77749.59;5032530;28;20589;-62
2022/08/10 04:08:31;;;;;;;;;;;;;;;-142.75;100.00;77749.59;5032499;28;20012;-62
2022/08/10 04:10:57;;;;;;;;;;;;;;;-142.75;100.00;77751.56;5032595;28;19913;-62
2022/08/10 04:13:22;;;;;;;;;;;;;;;-142.75;100.00;77747.63;5032678;28;19920;-63
2022/08/10 04:15:48;;;;;;;;;;;;;;;-142.75;100.00;77747.63;5032293;28;19956;-62
2022/08/10 04:18:13;;;;;;;;;;;;;;;-142.75;100.00;77739.75;5032472;28;19963;-63
2022/08/10 04:20:47;;;;;;;;;;;;;;;-142.75;100.00;77735.81;5032369;28;19960;-61
2022/08/10 04:23:16;;;;;;;;;;;;;;;-142.75;100.00;77741.72;5032414;28;20354;-62
2022/08/10 04:25:41;;;;;;;;;;;;;;;-142.75;100.00;77739.75;5032510;28;19917;-62
2022/08/10 04:28:07;;;;;;;;;;;;;;;-142.75;100.00;77735.81;5032032;28;20410;-62
2022/08/10 04:30:34;;;;;;;;;;;;;;;-142.75;100.00;77739.75;5033011;28;19917;-62
2022/08/10 04:33:01;;;;;;;;;;;;;;;-142.75;100.00;77743.69;5036487;28;19967;-61
2022/08/10 04:35:26;;;;;;;;;;;;;;;-142.75;100.00;77741.72;5036761;28;19964;-62
2022/08/10 04:37:52;;;;;;;;;;;;;;;-142.75;100.00;77741.72;5036072;28;19965;-62
2022/08/10 04:40:18;;;;;;;;;;;;;;;-142.75;100.00;77741.72;5018410;28;19917;-62
2022/08/10 04:42:44;;;;;;;;;;;;;;;-142.75;100.00;77739.75;5018748;28;19921;-63
2022/08/10 04:45:11;;;;;;;;;;;;;;;-142.75;100.00;77737.78;5036165;28;19913;-62
2022/08/10 04:47:37;;;;;;;;;;;;;;;-142.75;100.00;77733.84;5035821;28;20389;-63
2022/08/10 04:50:03;;;;;;;;;;;;;;;-142.75;100.00;77731.88;5035898;28;20052;-62
2022/08/10 04:52:28;;;;;;;;;;;;;;;-142.75;100.00;77735.81;5036005;28;19936;-63
2022/08/10 04:54:53;;;;;;;;;;;;;;;-142.75;100.00;77727.94;5035933;28;20000;-63
2022/08/10 04:57:18;;;;;;;;;;;;;;;-142.75;100.00;77731.88;5035608;28;19919;-62
2022/08/10 04:59:43;;;;;;;;;;;;;;;-142.75;100.00;77722.00;5018014;28;19913;-63
2022/08/10 05:02:09;;;;;;;;;;;;;;;-142.75;100.00;77708.22;5035795;28;20370;-63
2022/08/10 05:04:34;;;;;;;;;;;;;;;-142.75;100.00;77700.34;5035632;28;19970;-63
2022/08/10 05:06:59;;;;;;;;;;;;;;;-142.75;100.00;77684.59;5035419;28;19914;-63
2022/08/10 05:09:24;;;;;;;;;;;;;;;-142.75;100.00;77666.88;5035631;28;20444;-63
2022/08/10 05:11:49;;;;;;;;;;;;;;;-142.75;100.00;77643.25;5035570;28;19913;-63
2022/08/10 05:14:15;;;;;;;;;;;;;;;-142.75;100.00;77625.53;5035513;28;20432;-63
2022/08/10 05:16:40;;;;;;;;;;;;;;;-142.75;100.00;77603.88;5035263;28;19956;-63
2022/08/10 05:19:05;;;;;;;;;;;;;;;-142.75;100.00;77574.34;5035320;28;19917;-63
2022/08/10 05:21:30;;;;;;;;;;;;;;;-142.75;100.00;77554.66;5035435;28;19921;-63
2022/08/10 05:23:56;;;;;;;;;;;;;;;-142.75;100.00;77531.03;5035463;28;19924;-63
2022/08/10 05:26:21;;;;;;;;;;;;;;;-142.75;100.00;77521.19;5035419;28;19940;-63
2022/08/10 05:28:46;;;;;;;;;;;;;;;-142.75;100.00;77507.41;5035167;28;19920;-63
2022/08/10 05:31:11;;;;;;;;;;;;;;;-142.75;100.00;77499.53;5035088;28;20387;-63
2022/08/10 05:33:36;;;;;;;;;;;;;;;-142.75;100.00;77497.56;5035078;28;20016;-63
2022/08/10 05:36:02;;;;;;;;;;;;;;;-142.75;100.00;77501.50;5035127;28;20371;-63
2022/08/10 05:38:27;;;;;;;;;;;;;;;-142.75;100.00;77479.84;5034865;28;19912;-63
2022/08/10 05:40:53;;;;;;;;;;;;;;;-142.75;100.00;77468.03;5034987;28;19917;-63
2022/08/10 05:43:19;;;;;;;;;;;;;;;-142.75;100.00;77456.22;5033964;28;19913;-63
2022/08/10 05:45:45;;;;;;;;;;;;;;;-142.75;100.00;77436.50;5035040;28;19913;-63
2022/08/10 05:48:11;;;;;;;;;;;;;;;-142.75;100.00;77424.69;5034609;28;20004;-63
2022/08/10 05:50:36;;;;;;;;;;;;;;;-142.75;100.00;77408.94;5034993;28;19921;-62
2022/08/10 05:53:01;;;;;;;;;;;;;;;-142.75;100.00;77385.31;5035109;28;19913;-63
2022/08/10 05:55:28;;;;;;;;;;;;;;;-142.75;100.00;77359.72;5034811;28;19956;-63
2022/08/10 05:57:53;;;;;;;;;;;;;;;-142.75;100.00;77330.19;5034496;28;20000;-62
2022/08/10 06:00:20;;;;;;;;;;;;;;;-142.75;100.00;77302.63;5034705;28;20012;-63
2022/08/10 06:02:50;;;;;;;;;;;;;;;-142.75;100.00;77290.81;5034464;28;20092;-63
2022/08/10 06:05:18;;;;;;;;;;;;;;;-142.75;100.00;77279.00;5034525;28;19960;-62
2022/08/10 06:07:47;;;;;;;;;;;;;;;-142.75;100.00;77279.00;5034492;28;19959;-63
2022/08/10 06:10:13;;;;;;;;;;;;;;;-142.75;100.00;77273.09;5034397;28;19990;-62
2022/08/10 06:12:39;;;;;;;;;;;;;;;-142.75;100.00;77251.44;5034544;28;19920;-63
2022/08/10 06:15:05;;;;;;;;;;;;;;;-142.75;100.00;77235.69;5034381;28;20298;-62
2022/08/10 06:17:31;;;;;;;;;;;;;;;-142.75;100.00;77200.25;5033968;28;19914;-63
2022/08/10 06:19:57;;;;;;;;;;;;;;;-142.75;100.00;77194.34;5034296;28;19917;-62
2022/08/10 06:22:24;;;;;;;;;;;;;;;-142.75;100.00;77174.66;5034350;28;19959;-62
2022/08/10 06:24:49;;;;;;;;;;;;;;;-142.75;100.00;77156.94;5034251;28;19921;-62
2022/08/10 06:27:15;;;;;;;;;;;;;;;-142.75;100.00;77137.25;5033956;28;19913;-62
2022/08/10 06:29:42;;;;;;;;;;;;;;;-142.75;100.00;77113.63;5034162;28;19917;-62
2022/08/10 06:32:08;;;;;;;;;;;;;;;-142.75;100.00;77117.56;5033946;28;19913;-62
2022/08/10 06:34:38;;;;;;;;;;;;;;;-142.75;100.00;77095.91;5034029;28;19987;-63
2022/08/10 06:37:04;;;;;;;;;;;;;;;-142.75;100.00;77095.91;5033763;28;19952;-63
2022/08/10 06:39:30;;;;;;;;;;;;;;;-142.75;100.00;77072.28;5033804;28;19948;-62
2022/08/10 06:42:17;;;;;;;;;;;;;;;-142.75;100.00;77068.34;5034056;28;20000;-62
2022/08/10 06:45:03;;;;;;;;;;;;;;;-142.75;100.00;77064.41;5033834;28;20402;-62
2022/08/10 06:47:36;;;;;;;;;;;;;;;-142.75;100.00;77028.97;5033537;28;19913;-63
2022/08/10 06:50:06;;;;;;;;;;;;;;;-142.75;100.00;77034.88;5033732;28;19920;-62
2022/08/10 06:52:32;;;;;;;;;;;;;;;-142.75;100.00;77027.00;5033762;28;19974;-63
2022/08/10 06:54:59;;;;;;;;;;;;;;;-142.75;100.00;77003.38;5033326;28;20375;-62
2022/08/10 06:57:25;;;;;;;;;;;;;;;-142.75;100.00;76999.44;5033321;28;19967;-62
2022/08/10 06:59:51;;;;;;;;;;;;;;;-142.75;100.00;76975.81;5033551;28;19975;-63
2022/08/10 07:02:24;;;;;;;;;;;;;;;-142.75;100.00;76965.97;5033512;28;20383;-62
2022/08/10 07:05:10;;;;;;;;;;;;;;;-142.75;100.00;76964.00;5015758;28;20003;-62
2022/08/10 07:07:37;;;;;;;;;;;;;;;-142.75;100.00;76918.72;5033114;28;19978;-62
2022/08/10 07:10:02;;;;;;;;;;;;;;;-142.75;100.00;76926.59;5033249;28;19975;-62
2022/08/10 07:12:29;;;;;;;;;;;;;;;-142.75;100.00;76881.31;5033282;28;20383;-62
2022/08/10 07:14:55;;;;;;;;;;;;;;;-142.75;100.00;76871.47;5033174;28;20367;-61
2022/08/10 07:17:25;;;;;;;;;;;;;;;-142.75;100.00;76851.78;5032362;28;19990;-62
2022/08/10 07:19:54;;;;;;;;;;;;;;;-142.75;100.00;76830.13;5032340;28;19993;-61
2022/08/10 07:22:21;;;;;;;;;;;;;;;-142.75;100.00;76818.31;5032330;28;19920;-61
2022/08/10 07:24:47;;;;;;;;;;;;;;;-142.75;100.00;76786.84;5032098;28;19921;-62
2022/08/10 07:27:13;;;;;;;;;;;;;;;-142.75;100.00;76761.25;5031879;28;19974;-62
2022/08/10 07:29:42;;;;;;;;;;;;;;;-142.75;100.00;76751.41;5032149;28;19917;-62
2022/08/10 07:32:08;;;;;;;;;;;;;;;-142.75;100.00;76735.66;5032061;28;19949;-62
2022/08/10 07:34:34;;;;;;;;;;;;;;;-142.75;100.00;76712.03;5031680;28;19939;-61
2022/08/10 07:37:02;;;;;;;;;;;;;;;-142.75;100.00;76694.31;5031760;28;19959;-61
2022/08/10 07:39:28;;;;;;;;;;;;;;;-142.75;100.00;76664.78;5031637;28;20339;-61
2022/08/10 07:41:54;;;;;;;;;;;;;;;-142.75;100.00;76676.59;5031949;28;19913;-61
2022/08/10 07:44:20;;;;;;;;;;;;;;;-142.75;100.00;76660.84;5031904;28;20298;-61
2022/08/10 07:46:48;;;;;;;;;;;;;;;-142.75;100.00;76629.34;5031480;28;20008;-61
2022/08/10 07:49:17;;;;;;;;;;;;;;;-142.75;100.00;76601.78;5031482;28;19920;-61
2022/08/10 07:51:42;;;;;;;;;;;;;;;-142.75;100.00;76615.56;5031870;28;20429;-61
2022/08/10 07:54:14;;;;;;;;;;;;;;;-142.75;100.00;76651.00;5031581;28;19917;-61
2022/08/10 07:56:40;;;;;;;;;;;;;;;-142.75;100.00;76666.75;5031304;28;20000;-61
2022/08/10 07:59:08;;;;;;;;;;;;;;;-142.75;100.00;76635.25;5031613;28;20376;-61
2022/08/10 08:01:35;;;;;;;;;;;;;;;-142.75;100.00;76623.44;5030121;28;19917;-61
2022/08/10 08:04:01;;;;;;;;;;;;;;;-142.75;100.00;76586.03;5031295;28;20386;-60
2022/08/10 08:06:27;;;;;;;;;;;;;;;-142.75;100.00;76558.47;5030930;28;19978;-61
2022/08/10 08:08:53;;;;;;;;;;;;;;;-142.75;100.00;76499.44;5031257;28;19952;-61
2022/08/10 08:11:18;;;;;;;;;;;;;;;-142.75;100.00;76469.91;5031147;28;19964;-61
2022/08/10 08:13:44;;;;;;;;;;;;;;;-142.75;100.00;76452.19;5031369;28;20367;-61
2022/08/10 08:16:10;;;;;;;;;;;;;;;-142.75;100.00;76458.09;5031269;28;19960;-61
2022/08/10 08:18:36;;;;;;;;;;;;;;;-142.75;100.00;76460.06;5030992;28;20736;-61
2022/08/10 08:21:02;;;;;;;;;;;;;;;-142.75;100.00;76412.81;5031415;28;19959;-61
2022/08/10 08:23:27;;;;;;;;;;;;;;;-142.75;100.00;76369.50;5031265;28;19959;-61
2022/08/10 08:25:53;;;;;;;;;;;;;;;-142.75;100.00;76369.50;5031241;28;20011;-61
2022/08/10 08:28:19;;;;;;;;;;;;;;;-142.75;100.00;76402.97;5030991;28;20008;-61
2022/08/10 08:30:45;;;;;;;;;;;;;;;-142.75;100.00;76340.00;5031051;28;20379;-62
2022/08/10 08:33:12;;;;;;;;;;;;;;;-142.75;100.00;76328.19;5031069;28;19924;-61
2022/08/10 08:35:37;;;;;;;;;;;;;;;-142.75;100.00;76292.75;5031267;28;20404;-62
2022/08/10 08:38:03;;;;;;;;;;;;;;;-142.75;100.00;76253.38;5030846;28;19913;-61
2022/08/10 08:40:29;;;;;;;;;;;;;;;-142.75;100.00;76245.50;5030897;28;19917;-61
2022/08/10 08:43:04;;;;;;;;;;;;;;;-142.75;100.00;76212.03;5031025;28;19913;-61
2022/08/10 08:45:49;;;;;;;;;;;;;;;-142.75;100.00;76212.03;5030790;28;19917;-61
2022/08/10 08:48:33;;;;;;;;;;;;;;;-142.75;100.00;76180.56;5030546;28;20348;-61
2022/08/10 08:51:01;;;;;;;;;;;;;;;-142.75;100.00;76186.47;5031106;28;20647;-61
2022/08/10 08:53:35;;;;;;;;;;;;;;;-142.75;100.00;76196.31;5030916;28;19929;-61
2022/08/10 08:56:08;;;;;;;;;;;;;;;-142.75;100.00;76129.38;5030885;28;19956;-61
2022/08/10 08:58:37;;;;;;;;;;;;;;;-142.75;99.45;76145.13;5030838;28;19920;-61
2022/08/10 09:01:17;;;;;;;;;;;;;;;-142.75;99.42;76105.75;5031098;28;19920;-62
2022/08/10 09:03:51;;;;;;;;;;;;;;;-142.75;100.00;76066.41;5030699;28;19924;-61
2022/08/10 09:06:43;;;;;;;;;;;;;;;-142.75;84.60;76042.78;5031170;28;19917;-61
2022/08/10 09:09:15;;;;;;;;;;;;;;;-142.75;93.49;76048.69;5031123;28;19999;-61
2022/08/10 09:11:59;;;;;;;;;;;;;;;-142.75;90.83;76019.16;5013342;28;19913;-61
2022/08/10 09:14:34;;;;;;;;;;;;;;;-142.75;92.91;76007.34;5030958;28;19963;-61
2022/08/10 09:17:08;;;;;;;;;;;;;;;-142.75;90.68;75985.69;5031984;28;19913;-61
2022/08/10 09:19:45;;;;;;;;;;;;;;;-142.75;85.99;75991.59;5034532;28;19916;-61
2022/08/10 09:22:14;;;;;;;;;;;;;;;-142.75;86.20;75971.91;5034571;28;19944;-61
2022/08/10 09:24:45;;;;;;;;;;;;;;;-142.75;82.02;75938.47;5034536;28;19972;-61
2022/08/10 09:27:21;;;;;;;;;;;;;;;-142.75;80.68;75958.16;5033989;28;19964;-62
2022/08/10 09:29:59;;;;;;;;;;;;;;;-142.75;77.86;75930.59;5034562;28;20402;-61
2022/08/10 09:32:37;;;;;;;;;;;;;;;-142.75;81.94;75883.34;5034954;28;19920;-62
2022/08/10 09:35:20;;;;;;;;;;;;;;;-142.75;79.96;75916.81;5035122;28;19960;-61
2022/08/10 09:37:49;;;;;;;;;;;;;;;-142.75;80.08;75891.22;5034911;28;19952;-62
2022/08/10 09:40:26;;;;;;;;;;;;;;;-142.75;78.86;75871.53;5034915;28;19917;-62
2022/08/10 09:42:59;;;;;;;;;;;;;;;-142.75;76.09;75804.63;5035005;28;19921;-62
2022/08/10 09:45:48;;;;;;;;;;;;;;;-142.75;75.63;75826.28;5047800;22;19932;-65
2022/08/10 09:48:39;;;;;;;;;;;;;;;-142.75;74.60;75786.91;5009777;28;20443;-65
2022/08/10 09:51:18;;;;;;;;;;;;;;;-142.75;70.33;75753.47;5014965;28;20405;-65
2022/08/10 09:54:03;;;;;;;;;;;;;;;-142.75;71.74;75822.34;5014765;28;20013;-64
2022/08/10 09:56:33;;;;;;;;;;;;;;;-142.75;74.01;75771.16;4996907;28;19917;-68
2022/08/10 09:59:08;;;;;;;;;;;;;;;-142.75;74.45;75753.47;5014615;28;20407;-67
2022/08/10 10:01:42;;;;;;;;;;;;;;;-142.75;72.72;75727.88;5013288;28;19913;-68
2022/08/10 10:04:15;;;;;;;;;;;;;;;-142.75;72.15;75757.41;5014518;28;19917;-68
2022/08/10 10:06:40;;;;;;;;;;;;;;;-142.75;69.07;75749.53;5014300;28;19913;-67
2022/08/10 10:09:07;;;;;;;;;;;;;;;-142.75;68.82;75721.97;5014688;28;20448;-68
2022/08/10 10:11:35;;;;;;;;;;;;;;;-142.75;67.19;75720.00;5009760;28;20387;-67
2022/08/10 10:14:19;;;;;;;;;;;;;;;-142.75;70.46;75698.34;4994580;28;19917;-67
2022/08/10 10:17:00;;;;;;;;;;;;;;;-142.75;68.92;75678.66;4993857;28;19914;-68
2022/08/10 10:19:28;;;;;;;;;;;;;;;-142.75;67.45;75706.22;5008263;28;19918;-68
2022/08/10 10:22:10;;;;;;;;;;;;;;;-142.75;66.82;75674.72;4993697;28;19914;-69
2022/08/10 10:24:47;;;;;;;;;;;;;;;-142.75;64.74;75645.22;4994872;28;20296;-67
2022/08/10 10:27:24;;;;;;;;;;;;;;;-142.75;64.04;75696.38;4994567;28;19917;-69
2022/08/10 10:30:04;;;;;;;;;;;;;;;-142.75;64.70;75609.78;4994173;28;19913;-67
2022/08/10 10:32:51;;;;;;;;;;;;;;;-142.75;64.05;75550.75;4994780;28;19953;-68
2022/08/10 10:35:25;;;;;;;;;;;;;;;-142.75;64.23;75574.38;4994641;28;19918;-66
2022/08/10 10:37:51;;;;;;;;;;;;;;;-142.75;60.88;75499.59;4994260;28;20300;-68
2022/08/10 10:40:18;;;;;;;;;;;;;;;-142.75;57.63;75527.13;4994375;28;20012;-67
2022/08/10 10:42:59;;;;;;;;;;;;;;;-142.75;58.60;75521.22;4994561;28;19914;-68
2022/08/10 10:45:50;;;;;;;;;;;;;;;-142.75;60.82;75562.56;4994413;28;20013;-68
2022/08/10 10:48:31;;;;;;;;;;;;;;;-142.75;56.81;75519.25;4994260;28;20004;-68
2022/08/10 10:51:01;;;;;;;;;;;;;;;-142.75;57.73;75505.50;4994525;28;19918;-68
2022/08/10 10:53:33;;;;;;;;;;;;;;;-142.75;56.79;75597.97;4976862;28;19924;-69
2022/08/10 10:56:24;;;;;;;;;;;;;;;-142.75;58.74;75660.97;4994232;28;19925;-68
2022/08/10 10:59:08;;;;;;;;;;;;;;;-142.75;59.40;75594.06;4978276;28;19937;-68
2022/08/10 11:01:39;;;;;;;;;;;;;;;-142.75;59.55;75523.19;4992957;28;19946;-68
2022/08/10 11:04:12;;;;;;;;;;;;;;;-142.75;56.75;75562.56;4993937;28;20290;-67
2022/08/10 11:06:53;;;;;;;;;;;;;;;-142.75;58.05;75511.41;5013444;28;20383;-68
2022/08/10 11:09:30;;;;;;;;;;;;;;;-142.75;55.45;75472.03;5013576;28;19914;-69
2022/08/10 11:11:57;;;;;;;;;;;;;;;-142.75;53.88;75554.69;5013751;28;20298;-68
2022/08/10 11:14:29;;;;;;;;;;;;;;;-142.75;56.45;75531.06;5013448;28;19963;-67
2022/08/10 11:16:54;;;;;;;;;;;;;;;-142.75;55.42;75507.47;5013300;28;20647;-68
2022/08/10 11:19:38;;;;;;;;;;;;;;;-142.75;52.99;75450.38;5012252;28;19918;-68
2022/08/10 11:22:18;;;;;;;;;;;;;;;-142.75;46.86;75481.88;5013417;28;19913;-68
2022/08/10 11:24:46;;;;;;;;;;;;;;;-142.75;47.71;75440.53;5013336;28;20012;-67
2022/08/10 11:27:24;;;;;;;;;;;;;;;-142.75;44.08;75479.91;5013061;28;20383;-68
2022/08/10 11:29:58;;;;;;;;;;;;;;;-142.75;48.81;75505.50;5013857;28;19913;-68
2022/08/10 11:32:33;;;;;;;;;;;;;;;-142.75;50.15;75499.59;5013282;28;20406;-68
2022/08/10 11:35:06;;;;;;;;;;;;;;;-142.75;48.72;75489.75;5011571;28;19918;-68
2022/08/10 11:37:39;;;;;;;;;;;;;;;-142.75;46.80;75462.19;5012897;28;20435;-68
2022/08/10 11:40:22;;;;;;;;;;;;;;;-142.75;48.11;75460.22;5012498;28;19967;-68
2022/08/10 11:43:00;;;;;;;;;;;;;;;-142.75;50.25;75474.00;5013178;28;19913;-68
2022/08/10 11:45:30;;;;;;;;;;;;;;;-142.75;47.36;75407.09;5012879;28;20268;-68
2022/08/10 11:48:00;;;;;;;;;;;;;;;-142.75;51.00;75456.28;5012774;28;20330;-67
2022/08/10 11:50:35;;;;;;;;;;;;;;;-142.75;51.90;75444.47;5012982;28;20364;-68
2022/08/10 11:53:16;;;;;;;;;;;;;;;-142.75;45.61;75381.50;5012860;28;19920;-68
2022/08/10 11:55:43;;;;;;;;;;;;;;;-142.75;42.16;75357.91;5012745;28;20008;-68
2022/08/10 12:01:01;;;;;;;;;;;;;;;-142.75;45.97;75403.16;5013169;28;19977;-68
2022/08/10 12:03:26;;;;;;;;;;;;;;;-142.75;43.21;75377.56;5012755;28;19914;-68
2022/08/10 12:05:53;;;;;;;;;;;;;;;-142.75;40.22;75377.56;5011263;28;19917;-69
2022/08/10 12:08:20;;;;;;;;;;;;;;;-142.75;41.76;75411.03;5012462;28;19913;-67
2022/08/10 12:10:48;;;;;;;;;;;;;;;-142.75;40.86;75403.16;5012688;28;19913;-68
2022/08/10 12:13:35;;;;;;;;;;;;;;;-142.75;44.11;75416.94;5012679;28;19913;-68
2022/08/10 12:16:08;;;;;;;;;;;;;;;-142.75;40.76;75393.31;5012349;28;19993;-67
2022/08/10 12:18:45;;;;;;;;;;;;;;;-142.75;39.43;75391.34;5012383;28;19913;-68
2022/08/10 12:21:19;;;;;;;;;;;;;;;-142.75;43.40;75413.00;5012547;28;19921;-68
2022/08/10 12:23:47;;;;;;;;;;;;;;;-142.75;42.19;75298.84;5012481;28;20016;-67
2022/08/10 12:26:15;;;;;;;;;;;;;;;-142.75;42.14;75316.56;4992880;28;19918;-68
2022/08/10 12:28:50;;;;;;;;;;;;;;;-142.75;39.77;75401.19;5012214;28;19914;-68
2022/08/10 12:31:16;;;;;;;;;;;;;;;-142.75;38.89;75350.03;5012508;28;19995;-68
2022/08/10 12:34:00;;;;;;;;;;;;;;;-142.75;40.29;75296.88;5012364;28;19925;-65
2022/08/10 12:36:27;;;;;;;;;;;;;;;-142.75;42.19;75355.94;4991337;28;19921;-67